sensor_id;sensor_type;location;lat;lon;timestamp;P1;durP1;ratioP1;P2;durP2;ratioP2
26951;SDS011;14507;52.418;13.398;2023-02-11T00:00:14;72.10;;;32.65;;
26951;SDS011;14507;52.418;13.398;2023-02-11T00:02:40;77.75;;;34.15;;
26951;SDS011;14507;52.418;13.398;2023-02-11T00:05:06;81.93;;;34.15;;
26951;SDS011;14507;52.418;13.398;2023-02-11T00:07:33;82.90;;;34.22;;
26951;SDS011;14507;52.418;13.398;2023-02-11T00:09:58;77.50;;;33.90;;
26951;SDS011;14507;52.418;13.398;2023-02-11T00:12:27;84.63;;;34.20;;
26951;SDS011;14507;52.418;13.398;2023-02-11T00:14:53;71.93;;;34.08;;
26951;SDS011;14507;52.418;13.398;2023-02-11T00:17:19;79.93;;;34.15;;
26951;SDS011;14507;52.418;13.398;2023-02-11T00:19:48;84.40;;;34.33;;
26951;SDS011;14507;52.418;13.398;2023-02-11T00:22:14;81.15;;;34.88;;
26951;SDS011;14507;52.418;13.398;2023-02-11T00:24:40;73.88;;;33.42;;
26951;SDS011;14507;52.418;13.398;2023-02-11T00:27:05;74.05;;;32.65;;
26951;SDS011;14507;52.418;13.398;2023-02-11T00:29:31;77.85;;;33.90;;
26951;SDS011;14507;52.418;13.398;2023-02-11T00:31:56;74.88;;;32.95;;
26951;SDS011;14507;52.418;13.398;2023-02-11T00:34:22;80.95;;;33.42;;
26951;SDS011;14507;52.418;13.398;2023-02-11T00:36:48;72.78;;;32.38;;
26951;SDS011;14507;52.418;13.398;2023-02-11T00:39:14;81.40;;;33.50;;
26951;SDS011;14507;52.418;13.398;2023-02-11T00:41:39;77.72;;;33.88;;
26951;SDS011;14507;52.418;13.398;2023-02-11T00:44:05;69.90;;;30.85;;
26951;SDS011;14507;52.418;13.398;2023-02-11T00:46:31;74.82;;;31.45;;
26951;SDS011;14507;52.418;13.398;2023-02-11T00:48:57;67.28;;;33.17;;
26951;SDS011;14507;52.418;13.398;2023-02-11T00:51:23;85.28;;;34.40;;
26951;SDS011;14507;52.418;13.398;2023-02-11T00:53:49;74.53;;;31.80;;
26951;SDS011;14507;52.418;13.398;2023-02-11T00:56:15;72.15;;;32.25;;
26951;SDS011;14507;52.418;13.398;2023-02-11T00:58:41;73.57;;;32.00;;
26951;SDS011;14507;52.418;13.398;2023-02-11T01:01:07;71.97;;;32.60;;
26951;SDS011;14507;52.418;13.398;2023-02-11T01:03:34;79.95;;;32.35;;
26951;SDS011;14507;52.418;13.398;2023-02-11T01:06:00;75.43;;;33.60;;
26951;SDS011;14507;52.418;13.398;2023-02-11T01:08:26;74.97;;;33.85;;
26951;SDS011;14507;52.418;13.398;2023-02-11T01:10:55;71.85;;;31.95;;
26951;SDS011;14507;52.418;13.398;2023-02-11T01:13:25;72.63;;;32.17;;
26951;SDS011;14507;52.418;13.398;2023-02-11T01:15:53;77.27;;;32.83;;
26951;SDS011;14507;52.418;13.398;2023-02-11T01:18:19;78.28;;;32.88;;
26951;SDS011;14507;52.418;13.398;2023-02-11T01:20:45;76.30;;;33.95;;
26951;SDS011;14507;52.418;13.398;2023-02-11T01:23:10;69.32;;;30.75;;
26951;SDS011;14507;52.418;13.398;2023-02-11T01:25:36;72.18;;;33.70;;
26951;SDS011;14507;52.418;13.398;2023-02-11T01:28:02;73.22;;;33.53;;
26951;SDS011;14507;52.418;13.398;2023-02-11T01:30:27;68.68;;;30.95;;
26951;SDS011;14507;52.418;13.398;2023-02-11T01:32:53;83.97;;;33.70;;
26951;SDS011;14507;52.418;13.398;2023-02-11T01:35:19;71.40;;;32.58;;
26951;SDS011;14507;52.418;13.398;2023-02-11T01:37:44;72.88;;;32.72;;
26951;SDS011;14507;52.418;13.398;2023-02-11T01:40:14;76.05;;;32.28;;
26951;SDS011;14507;52.418;13.398;2023-02-11T01:42:41;70.80;;;31.38;;
26951;SDS011;14507;52.418;13.398;2023-02-11T01:48:12;78.35;;;32.15;;
26951;SDS011;14507;52.418;13.398;2023-02-11T01:51:45;75.38;;;33.53;;
26951;SDS011;14507;52.418;13.398;2023-02-11T01:53:55;77.18;;;34.55;;
26951;SDS011;14507;52.418;13.398;2023-02-11T01:56:43;73.15;;;32.38;;
26951;SDS011;14507;52.418;13.398;2023-02-11T01:59:32;73.47;;;32.03;;
26951;SDS011;14507;52.418;13.398;2023-02-11T02:02:04;76.65;;;33.90;;
26951;SDS011;14507;52.418;13.398;2023-02-11T02:04:37;69.00;;;32.00;;
26951;SDS011;14507;52.418;13.398;2023-02-11T02:07:31;74.20;;;32.80;;
26951;SDS011;14507;52.418;13.398;2023-02-11T02:10:07;76.47;;;33.15;;
26951;SDS011;14507;52.418;13.398;2023-02-11T02:12:37;82.78;;;34.47;;
26951;SDS011;14507;52.418;13.398;2023-02-11T02:15:13;70.53;;;32.40;;
26951;SDS011;14507;52.418;13.398;2023-02-11T02:24:08;72.20;;;31.92;;
26951;SDS011;14507;52.418;13.398;2023-02-11T02:38:05;71.78;;;33.53;;
26951;SDS011;14507;52.418;13.398;2023-02-11T02:40:46;71.85;;;32.33;;
26951;SDS011;14507;52.418;13.398;2023-02-11T02:43:22;71.75;;;32.38;;
26951;SDS011;14507;52.418;13.398;2023-02-11T02:45:50;76.05;;;34.13;;
26951;SDS011;14507;52.418;13.398;2023-02-11T02:48:25;73.57;;;33.20;;
26951;SDS011;14507;52.418;13.398;2023-02-11T03:07:33;78.72;;;35.25;;
26951;SDS011;14507;52.418;13.398;2023-02-11T03:10:25;70.57;;;34.25;;
26951;SDS011;14507;52.418;13.398;2023-02-11T03:12:52;79.80;;;35.30;;
26951;SDS011;14507;52.418;13.398;2023-02-11T03:15:19;76.78;;;35.20;;
26951;SDS011;14507;52.418;13.398;2023-02-11T03:17:47;75.50;;;34.72;;
26951;SDS011;14507;52.418;13.398;2023-02-11T03:20:15;75.50;;;33.60;;
26951;SDS011;14507;52.418;13.398;2023-02-11T03:25:20;67.95;;;32.72;;
26951;SDS011;14507;52.418;13.398;2023-02-11T03:27:56;75.13;;;33.10;;
26951;SDS011;14507;52.418;13.398;2023-02-11T03:30:33;71.13;;;33.53;;
26951;SDS011;14507;52.418;13.398;2023-02-11T03:33:07;75.07;;;34.72;;
26951;SDS011;14507;52.418;13.398;2023-02-11T03:35:40;75.32;;;34.42;;
26951;SDS011;14507;52.418;13.398;2023-02-11T03:38:32;69.60;;;34.05;;
26951;SDS011;14507;52.418;13.398;2023-02-11T03:41:01;72.25;;;34.15;;
26951;SDS011;14507;52.418;13.398;2023-02-11T03:43:32;67.68;;;33.13;;
26951;SDS011;14507;52.418;13.398;2023-02-11T03:46:01;73.07;;;33.75;;
26951;SDS011;14507;52.418;13.398;2023-02-11T03:48:32;76.70;;;33.90;;
26951;SDS011;14507;52.418;13.398;2023-02-11T03:51:02;69.20;;;33.78;;
26951;SDS011;14507;52.418;13.398;2023-02-11T03:53:30;73.43;;;34.70;;
26951;SDS011;14507;52.418;13.398;2023-02-11T03:55:56;71.20;;;34.10;;
26951;SDS011;14507;52.418;13.398;2023-02-11T03:58:26;77.63;;;35.80;;
26951;SDS011;14507;52.418;13.398;2023-02-11T04:00:52;74.88;;;35.65;;
26951;SDS011;14507;52.418;13.398;2023-02-11T04:03:18;82.40;;;37.17;;
26951;SDS011;14507;52.418;13.398;2023-02-11T04:05:43;76.03;;;34.88;;
26951;SDS011;14507;52.418;13.398;2023-02-11T04:08:09;79.63;;;35.92;;
26951;SDS011;14507;52.418;13.398;2023-02-11T04:10:35;72.78;;;35.33;;
26951;SDS011;14507;52.418;13.398;2023-02-11T04:13:01;77.60;;;37.22;;
26951;SDS011;14507;52.418;13.398;2023-02-11T04:15:26;83.93;;;37.60;;
26951;SDS011;14507;52.418;13.398;2023-02-11T04:17:52;80.57;;;36.70;;
26951;SDS011;14507;52.418;13.398;2023-02-11T04:20:18;83.72;;;35.78;;
26951;SDS011;14507;52.418;13.398;2023-02-11T04:22:44;81.18;;;38.08;;
26951;SDS011;14507;52.418;13.398;2023-02-11T04:25:09;75.22;;;36.90;;
26951;SDS011;14507;52.418;13.398;2023-02-11T04:27:35;75.95;;;36.35;;
26951;SDS011;14507;52.418;13.398;2023-02-11T04:30:01;76.88;;;37.55;;
26951;SDS011;14507;52.418;13.398;2023-02-11T04:32:30;79.82;;;37.38;;
26951;SDS011;14507;52.418;13.398;2023-02-11T04:34:56;85.05;;;39.35;;
26951;SDS011;14507;52.418;13.398;2023-02-11T04:37:21;83.88;;;39.28;;
26951;SDS011;14507;52.418;13.398;2023-02-11T04:39:47;84.65;;;37.42;;
26951;SDS011;14507;52.418;13.398;2023-02-11T04:42:12;82.53;;;37.33;;
26951;SDS011;14507;52.418;13.398;2023-02-11T04:44:38;83.70;;;37.50;;
26951;SDS011;14507;52.418;13.398;2023-02-11T04:47:04;89.78;;;39.90;;
26951;SDS011;14507;52.418;13.398;2023-02-11T04:49:29;85.53;;;39.78;;
26951;SDS011;14507;52.418;13.398;2023-02-11T04:51:55;84.95;;;40.72;;
26951;SDS011;14507;52.418;13.398;2023-02-11T04:54:21;90.65;;;38.50;;
26951;SDS011;14507;52.418;13.398;2023-02-11T04:56:47;89.78;;;42.10;;
26951;SDS011;14507;52.418;13.398;2023-02-11T04:59:13;86.68;;;41.58;;
26951;SDS011;14507;52.418;13.398;2023-02-11T05:01:39;85.20;;;41.90;;
26951;SDS011;14507;52.418;13.398;2023-02-11T05:04:05;88.90;;;41.28;;
26951;SDS011;14507;52.418;13.398;2023-02-11T05:06:30;91.35;;;42.90;;
26951;SDS011;14507;52.418;13.398;2023-02-11T05:08:56;91.32;;;41.53;;
26951;SDS011;14507;52.418;13.398;2023-02-11T05:11:22;85.50;;;42.22;;
26951;SDS011;14507;52.418;13.398;2023-02-11T05:13:49;89.10;;;41.53;;
26951;SDS011;14507;52.418;13.398;2023-02-11T05:16:15;90.25;;;41.72;;
26951;SDS011;14507;52.418;13.398;2023-02-11T05:18:42;88.40;;;42.03;;
26951;SDS011;14507;52.418;13.398;2023-02-11T05:21:10;86.88;;;40.90;;
26951;SDS011;14507;52.418;13.398;2023-02-11T05:23:38;93.78;;;44.08;;
26951;SDS011;14507;52.418;13.398;2023-02-11T05:26:04;98.28;;;44.47;;
26951;SDS011;14507;52.418;13.398;2023-02-11T05:28:30;100.28;;;42.92;;
26951;SDS011;14507;52.418;13.398;2023-02-11T05:30:56;88.93;;;42.53;;
26951;SDS011;14507;52.418;13.398;2023-02-11T05:33:22;99.75;;;44.10;;
26951;SDS011;14507;52.418;13.398;2023-02-11T05:35:48;95.40;;;42.22;;
26951;SDS011;14507;52.418;13.398;2023-02-11T05:38:14;92.82;;;42.95;;
26951;SDS011;14507;52.418;13.398;2023-02-11T05:40:40;95.25;;;44.55;;
26951;SDS011;14507;52.418;13.398;2023-02-11T05:43:06;102.90;;;45.97;;
26951;SDS011;14507;52.418;13.398;2023-02-11T05:45:32;102.53;;;45.50;;
26951;SDS011;14507;52.418;13.398;2023-02-11T05:47:57;98.40;;;43.85;;
26951;SDS011;14507;52.418;13.398;2023-02-11T05:50:23;100.57;;;46.50;;
26951;SDS011;14507;52.418;13.398;2023-02-11T05:52:50;100.88;;;46.10;;
26951;SDS011;14507;52.418;13.398;2023-02-11T05:55:15;101.53;;;47.80;;
26951;SDS011;14507;52.418;13.398;2023-02-11T05:57:41;100.95;;;46.97;;
26951;SDS011;14507;52.418;13.398;2023-02-11T06:00:07;105.32;;;46.95;;
26951;SDS011;14507;52.418;13.398;2023-02-11T06:02:33;98.63;;;45.58;;
26951;SDS011;14507;52.418;13.398;2023-02-11T06:04:59;103.50;;;45.97;;
26951;SDS011;14507;52.418;13.398;2023-02-11T06:07:24;88.78;;;43.63;;
26951;SDS011;14507;52.418;13.398;2023-02-11T06:09:50;108.65;;;46.55;;
26951;SDS011;14507;52.418;13.398;2023-02-11T06:12:16;100.68;;;46.70;;
26951;SDS011;14507;52.418;13.398;2023-02-11T06:14:41;107.43;;;48.50;;
26951;SDS011;14507;52.418;13.398;2023-02-11T06:17:07;109.25;;;48.58;;
26951;SDS011;14507;52.418;13.398;2023-02-11T06:19:32;107.43;;;49.35;;
26951;SDS011;14507;52.418;13.398;2023-02-11T06:21:58;98.47;;;46.85;;
26951;SDS011;14507;52.418;13.398;2023-02-11T06:24:24;104.80;;;49.90;;
26951;SDS011;14507;52.418;13.398;2023-02-11T06:26:49;102.80;;;47.35;;
26951;SDS011;14507;52.418;13.398;2023-02-11T06:29:15;100.50;;;47.03;;
26951;SDS011;14507;52.418;13.398;2023-02-11T06:31:41;109.85;;;50.53;;
26951;SDS011;14507;52.418;13.398;2023-02-11T06:34:07;108.93;;;47.97;;
26951;SDS011;14507;52.418;13.398;2023-02-11T06:36:34;105.18;;;48.78;;
26951;SDS011;14507;52.418;13.398;2023-02-11T06:39:02;99.93;;;48.45;;
26951;SDS011;14507;52.418;13.398;2023-02-11T06:41:28;107.53;;;49.85;;
26951;SDS011;14507;52.418;13.398;2023-02-11T06:43:53;115.18;;;52.63;;
26951;SDS011;14507;52.418;13.398;2023-02-11T06:46:19;109.68;;;49.97;;
26951;SDS011;14507;52.418;13.398;2023-02-11T06:48:44;112.10;;;50.42;;
26951;SDS011;14507;52.418;13.398;2023-02-11T06:51:11;110.93;;;49.60;;
26951;SDS011;14507;52.418;13.398;2023-02-11T06:53:39;111.38;;;49.70;;
26951;SDS011;14507;52.418;13.398;2023-02-11T06:56:07;109.55;;;49.63;;
26951;SDS011;14507;52.418;13.398;2023-02-11T06:58:35;111.80;;;52.50;;
26951;SDS011;14507;52.418;13.398;2023-02-11T07:01:04;111.82;;;50.63;;
26951;SDS011;14507;52.418;13.398;2023-02-11T07:03:35;113.50;;;49.78;;
26951;SDS011;14507;52.418;13.398;2023-02-11T07:06:06;117.68;;;51.35;;
26951;SDS011;14507;52.418;13.398;2023-02-11T07:08:35;117.82;;;52.40;;
26951;SDS011;14507;52.418;13.398;2023-02-11T07:11:12;114.38;;;49.40;;
26951;SDS011;14507;52.418;13.398;2023-02-11T07:13:39;117.35;;;49.92;;
26951;SDS011;14507;52.418;13.398;2023-02-11T07:16:06;114.43;;;51.20;;
26951;SDS011;14507;52.418;13.398;2023-02-11T07:18:33;115.30;;;51.15;;
26951;SDS011;14507;52.418;13.398;2023-02-11T07:20:59;116.43;;;50.72;;
26951;SDS011;14507;52.418;13.398;2023-02-11T07:23:27;119.57;;;53.33;;
26951;SDS011;14507;52.418;13.398;2023-02-11T07:25:53;130.27;;;54.95;;
26951;SDS011;14507;52.418;13.398;2023-02-11T07:28:19;115.85;;;52.50;;
26951;SDS011;14507;52.418;13.398;2023-02-11T07:30:44;124.70;;;53.75;;
26951;SDS011;14507;52.418;13.398;2023-02-11T07:33:10;118.82;;;53.05;;
26951;SDS011;14507;52.418;13.398;2023-02-11T07:35:35;128.32;;;52.72;;
26951;SDS011;14507;52.418;13.398;2023-02-11T07:38:01;122.68;;;52.20;;
26951;SDS011;14507;52.418;13.398;2023-02-11T07:40:26;122.22;;;52.67;;
26951;SDS011;14507;52.418;13.398;2023-02-11T07:42:53;119.53;;;51.90;;
26951;SDS011;14507;52.418;13.398;2023-02-11T07:45:18;119.72;;;52.42;;
26951;SDS011;14507;52.418;13.398;2023-02-11T07:47:44;110.05;;;51.40;;
26951;SDS011;14507;52.418;13.398;2023-02-11T07:50:09;115.28;;;51.13;;
26951;SDS011;14507;52.418;13.398;2023-02-11T07:52:35;114.50;;;51.30;;
26951;SDS011;14507;52.418;13.398;2023-02-11T07:55:01;115.18;;;51.08;;
26951;SDS011;14507;52.418;13.398;2023-02-11T07:57:26;112.47;;;51.70;;
26951;SDS011;14507;52.418;13.398;2023-02-11T07:59:52;117.95;;;49.15;;
26951;SDS011;14507;52.418;13.398;2023-02-11T08:02:17;113.22;;;50.58;;
26951;SDS011;14507;52.418;13.398;2023-02-11T08:04:46;114.45;;;50.15;;
26951;SDS011;14507;52.418;13.398;2023-02-11T08:07:17;123.53;;;53.65;;
26951;SDS011;14507;52.418;13.398;2023-02-11T08:09:43;113.68;;;50.10;;
26951;SDS011;14507;52.418;13.398;2023-02-11T08:12:09;114.28;;;48.28;;
26951;SDS011;14507;52.418;13.398;2023-02-11T08:14:34;109.22;;;48.25;;
26951;SDS011;14507;52.418;13.398;2023-02-11T08:17:00;105.22;;;47.10;;
26951;SDS011;14507;52.418;13.398;2023-02-11T08:19:27;115.30;;;48.92;;
26951;SDS011;14507;52.418;13.398;2023-02-11T08:21:55;105.68;;;47.83;;
26951;SDS011;14507;52.418;13.398;2023-02-11T08:24:23;111.03;;;47.47;;
26951;SDS011;14507;52.418;13.398;2023-02-11T08:26:49;103.65;;;47.50;;
26951;SDS011;14507;52.418;13.398;2023-02-11T08:29:15;107.38;;;48.38;;
26951;SDS011;14507;52.418;13.398;2023-02-11T08:31:42;105.35;;;47.90;;
26951;SDS011;14507;52.418;13.398;2023-02-11T08:34:10;103.85;;;47.25;;
26951;SDS011;14507;52.418;13.398;2023-02-11T08:36:38;109.45;;;47.95;;
26951;SDS011;14507;52.418;13.398;2023-02-11T08:39:07;101.85;;;44.72;;
26951;SDS011;14507;52.418;13.398;2023-02-11T08:41:36;104.68;;;46.65;;
26951;SDS011;14507;52.418;13.398;2023-02-11T08:44:02;100.70;;;46.08;;
26951;SDS011;14507;52.418;13.398;2023-02-11T08:46:28;97.93;;;44.88;;
26951;SDS011;14507;52.418;13.398;2023-02-11T08:48:54;101.20;;;46.10;;
26951;SDS011;14507;52.418;13.398;2023-02-11T08:51:22;96.13;;;44.35;;
26951;SDS011;14507;52.418;13.398;2023-02-11T08:53:49;89.30;;;42.80;;
26951;SDS011;14507;52.418;13.398;2023-02-11T08:56:16;93.43;;;43.90;;
26951;SDS011;14507;52.418;13.398;2023-02-11T08:58:42;97.15;;;42.88;;
26951;SDS011;14507;52.418;13.398;2023-02-11T09:01:12;92.43;;;43.25;;
26951;SDS011;14507;52.418;13.398;2023-02-11T09:03:39;98.03;;;46.25;;
26951;SDS011;14507;52.418;13.398;2023-02-11T09:06:05;89.07;;;42.28;;
26951;SDS011;14507;52.418;13.398;2023-02-11T09:08:33;97.70;;;43.57;;
26951;SDS011;14507;52.418;13.398;2023-02-11T09:11:00;101.35;;;43.78;;
26951;SDS011;14507;52.418;13.398;2023-02-11T09:13:26;100.35;;;44.28;;
26951;SDS011;14507;52.418;13.398;2023-02-11T09:15:51;97.43;;;43.65;;
26951;SDS011;14507;52.418;13.398;2023-02-11T09:18:17;99.38;;;44.00;;
26951;SDS011;14507;52.418;13.398;2023-02-11T09:20:43;95.00;;;44.88;;
26951;SDS011;14507;52.418;13.398;2023-02-11T09:23:08;92.63;;;42.70;;
26951;SDS011;14507;52.418;13.398;2023-02-11T09:25:37;87.82;;;42.45;;
26951;SDS011;14507;52.418;13.398;2023-02-11T09:28:04;91.22;;;41.83;;
26951;SDS011;14507;52.418;13.398;2023-02-11T09:30:30;90.53;;;41.65;;
26951;SDS011;14507;52.418;13.398;2023-02-11T09:32:56;86.38;;;41.85;;
26951;SDS011;14507;52.418;13.398;2023-02-11T09:35:21;90.72;;;41.67;;
26951;SDS011;14507;52.418;13.398;2023-02-11T09:37:47;87.28;;;40.83;;
26951;SDS011;14507;52.418;13.398;2023-02-11T09:40:13;88.68;;;41.42;;
26951;SDS011;14507;52.418;13.398;2023-02-11T09:45:33;82.57;;;39.97;;
26951;SDS011;14507;52.418;13.398;2023-02-11T09:47:59;85.80;;;40.40;;
26951;SDS011;14507;52.418;13.398;2023-02-11T09:50:38;85.20;;;40.92;;
26951;SDS011;14507;52.418;13.398;2023-02-11T09:55:42;83.60;;;40.58;;
26951;SDS011;14507;52.418;13.398;2023-02-11T09:58:12;84.10;;;40.00;;
26951;SDS011;14507;52.418;13.398;2023-02-11T10:00:44;84.00;;;39.58;;
26951;SDS011;14507;52.418;13.398;2023-02-11T10:17:26;85.10;;;38.88;;
26951;SDS011;14507;52.418;13.398;2023-02-11T10:23:09;76.53;;;38.72;;
26951;SDS011;14507;52.418;13.398;2023-02-11T10:25:45;78.30;;;39.13;;
26951;SDS011;14507;52.418;13.398;2023-02-11T10:28:18;81.18;;;37.15;;
26951;SDS011;14507;52.418;13.398;2023-02-11T10:36:09;81.05;;;39.55;;
26951;SDS011;14507;52.418;13.398;2023-02-11T10:38:36;81.60;;;38.90;;
26951;SDS011;14507;52.418;13.398;2023-02-11T10:41:02;78.57;;;39.28;;
26951;SDS011;14507;52.418;13.398;2023-02-11T10:43:27;80.95;;;39.95;;
26951;SDS011;14507;52.418;13.398;2023-02-11T10:45:56;80.18;;;38.45;;
26951;SDS011;14507;52.418;13.398;2023-02-11T10:48:39;75.53;;;37.50;;
26951;SDS011;14507;52.418;13.398;2023-02-11T10:51:11;74.82;;;37.20;;
26951;SDS011;14507;52.418;13.398;2023-02-11T10:53:43;70.45;;;37.90;;
26951;SDS011;14507;52.418;13.398;2023-02-11T10:56:24;76.45;;;37.10;;
26951;SDS011;14507;52.418;13.398;2023-02-11T11:01:23;82.93;;;37.55;;
26951;SDS011;14507;52.418;13.398;2023-02-11T11:04:02;74.53;;;37.10;;
26951;SDS011;14507;52.418;13.398;2023-02-11T11:06:31;80.18;;;38.03;;
26951;SDS011;14507;52.418;13.398;2023-02-11T11:08:58;77.90;;;37.72;;
26951;SDS011;14507;52.418;13.398;2023-02-11T11:11:25;74.30;;;37.33;;
26951;SDS011;14507;52.418;13.398;2023-02-11T11:16:21;73.15;;;35.92;;
26951;SDS011;14507;52.418;13.398;2023-02-11T11:24:31;69.70;;;35.45;;
26951;SDS011;14507;52.418;13.398;2023-02-11T11:27:04;81.10;;;36.60;;
26951;SDS011;14507;52.418;13.398;2023-02-11T11:29:52;69.20;;;34.67;;
26951;SDS011;14507;52.418;13.398;2023-02-11T11:32:23;73.65;;;35.60;;
26951;SDS011;14507;52.418;13.398;2023-02-11T11:34:59;73.25;;;34.88;;
26951;SDS011;14507;52.418;13.398;2023-02-11T11:37:34;70.05;;;36.45;;
26951;SDS011;14507;52.418;13.398;2023-02-11T11:40:07;77.80;;;35.35;;
26951;SDS011;14507;52.418;13.398;2023-02-11T11:42:46;69.38;;;34.15;;
26951;SDS011;14507;52.418;13.398;2023-02-11T11:45:35;63.72;;;33.60;;
26951;SDS011;14507;52.418;13.398;2023-02-11T11:50:42;71.90;;;34.60;;
26951;SDS011;14507;52.418;13.398;2023-02-11T11:53:24;68.57;;;34.95;;
26951;SDS011;14507;52.418;13.398;2023-02-11T11:56:01;70.40;;;34.58;;
26951;SDS011;14507;52.418;13.398;2023-02-11T11:58:35;66.63;;;33.75;;
26951;SDS011;14507;52.418;13.398;2023-02-11T12:14:42;65.00;;;31.30;;
26951;SDS011;14507;52.418;13.398;2023-02-11T12:20:24;66.97;;;30.23;;
26951;SDS011;14507;52.418;13.398;2023-02-11T12:25:50;69.35;;;31.33;;
26951;SDS011;14507;52.418;13.398;2023-02-11T12:28:28;59.53;;;30.27;;
26951;SDS011;14507;52.418;13.398;2023-02-11T12:34:09;58.70;;;28.90;;
26951;SDS011;14507;52.418;13.398;2023-02-11T12:37:31;58.20;;;28.17;;
26951;SDS011;14507;52.418;13.398;2023-02-11T12:40:12;58.40;;;28.17;;
26951;SDS011;14507;52.418;13.398;2023-02-11T12:54:46;48.47;;;25.23;;
26951;SDS011;14507;52.418;13.398;2023-02-11T12:57:29;52.42;;;25.92;;
26951;SDS011;14507;52.418;13.398;2023-02-11T13:00:02;49.97;;;25.08;;
26951;SDS011;14507;52.418;13.398;2023-02-11T13:05:37;50.85;;;26.40;;
26951;SDS011;14507;52.418;13.398;2023-02-11T13:10:46;41.83;;;23.25;;
26951;SDS011;14507;52.418;13.398;2023-02-11T13:13:21;46.65;;;23.38;;
26951;SDS011;14507;52.418;13.398;2023-02-11T13:15:52;46.15;;;24.83;;
26951;SDS011;14507;52.418;13.398;2023-02-11T13:23:42;48.15;;;23.42;;
26951;SDS011;14507;52.418;13.398;2023-02-11T13:26:15;48.90;;;24.13;;
26951;SDS011;14507;52.418;13.398;2023-02-11T13:31:52;39.42;;;21.65;;
26951;SDS011;14507;52.418;13.398;2023-02-11T13:37:29;41.80;;;22.08;;
26951;SDS011;14507;52.418;13.398;2023-02-11T13:40:00;45.90;;;23.60;;
26951;SDS011;14507;52.418;13.398;2023-02-11T13:42:44;46.03;;;24.48;;
26951;SDS011;14507;52.418;13.398;2023-02-11T13:45:17;41.22;;;21.67;;
26951;SDS011;14507;52.418;13.398;2023-02-11T13:47:58;45.03;;;23.05;;
26951;SDS011;14507;52.418;13.398;2023-02-11T13:50:36;40.83;;;22.30;;
26951;SDS011;14507;52.418;13.398;2023-02-11T13:53:04;39.90;;;21.73;;
26951;SDS011;14507;52.418;13.398;2023-02-11T13:55:32;43.40;;;22.75;;
26951;SDS011;14507;52.418;13.398;2023-02-11T14:16:36;39.40;;;22.02;;
26951;SDS011;14507;52.418;13.398;2023-02-11T14:22:22;46.65;;;23.45;;
26951;SDS011;14507;52.418;13.398;2023-02-11T14:24:52;48.30;;;22.98;;
26951;SDS011;14507;52.418;13.398;2023-02-11T14:27:30;36.67;;;21.80;;
26951;SDS011;14507;52.418;13.398;2023-02-11T14:32:54;45.75;;;22.40;;
26951;SDS011;14507;52.418;13.398;2023-02-11T14:38:27;39.90;;;20.70;;
26951;SDS011;14507;52.418;13.398;2023-02-11T14:41:07;38.17;;;21.02;;
26951;SDS011;14507;52.418;13.398;2023-02-11T14:43:48;38.97;;;21.80;;
26951;SDS011;14507;52.418;13.398;2023-02-11T14:46:36;44.30;;;24.20;;
26951;SDS011;14507;52.418;13.398;2023-02-11T14:49:02;41.35;;;22.67;;
26951;SDS011;14507;52.418;13.398;2023-02-11T14:51:30;40.45;;;22.20;;
26951;SDS011;14507;52.418;13.398;2023-02-11T14:54:13;34.25;;;20.67;;
26951;SDS011;14507;52.418;13.398;2023-02-11T14:59:55;36.78;;;19.80;;
26951;SDS011;14507;52.418;13.398;2023-02-11T15:02:31;35.10;;;20.92;;
26951;SDS011;14507;52.418;13.398;2023-02-11T15:05:12;38.30;;;20.88;;
26951;SDS011;14507;52.418;13.398;2023-02-11T15:07:47;40.45;;;21.02;;
26951;SDS011;14507;52.418;13.398;2023-02-11T15:10:27;38.03;;;20.33;;
26951;SDS011;14507;52.418;13.398;2023-02-11T15:12:56;42.15;;;21.05;;
26951;SDS011;14507;52.418;13.398;2023-02-11T15:15:23;37.13;;;20.07;;
26951;SDS011;14507;52.418;13.398;2023-02-11T15:17:50;37.70;;;19.57;;
26951;SDS011;14507;52.418;13.398;2023-02-11T15:20:21;36.78;;;20.80;;
26951;SDS011;14507;52.418;13.398;2023-02-11T15:22:52;35.80;;;19.23;;
26951;SDS011;14507;52.418;13.398;2023-02-11T15:25:26;37.15;;;20.63;;
26951;SDS011;14507;52.418;13.398;2023-02-11T15:27:54;39.22;;;19.98;;
26951;SDS011;14507;52.418;13.398;2023-02-11T15:32:47;40.40;;;20.25;;
26951;SDS011;14507;52.418;13.398;2023-02-11T15:35:14;38.03;;;20.63;;
26951;SDS011;14507;52.418;13.398;2023-02-11T15:37:41;37.67;;;20.40;;
26951;SDS011;14507;52.418;13.398;2023-02-11T15:40:14;35.25;;;19.80;;
26951;SDS011;14507;52.418;13.398;2023-02-11T15:43:02;41.33;;;20.65;;
26951;SDS011;14507;52.418;13.398;2023-02-11T15:45:40;32.33;;;18.98;;
26951;SDS011;14507;52.418;13.398;2023-02-11T15:50:41;36.85;;;20.30;;
26951;SDS011;14507;52.418;13.398;2023-02-11T15:53:32;33.10;;;18.35;;
26951;SDS011;14507;52.418;13.398;2023-02-11T15:56:24;34.13;;;19.48;;
26951;SDS011;14507;52.418;13.398;2023-02-11T15:58:57;36.00;;;19.60;;
26951;SDS011;14507;52.418;13.398;2023-02-11T16:01:32;37.35;;;19.20;;
26951;SDS011;14507;52.418;13.398;2023-02-11T16:04:00;33.53;;;18.67;;
26951;SDS011;14507;52.418;13.398;2023-02-11T16:06:40;34.58;;;18.50;;
26951;SDS011;14507;52.418;13.398;2023-02-11T16:17:02;29.00;;;17.25;;
26951;SDS011;14507;52.418;13.398;2023-02-11T16:19:41;32.63;;;17.90;;
26951;SDS011;14507;52.418;13.398;2023-02-11T16:22:09;34.33;;;17.73;;
26951;SDS011;14507;52.418;13.398;2023-02-11T16:24:39;31.70;;;18.15;;
26951;SDS011;14507;52.418;13.398;2023-02-11T16:27:06;34.03;;;18.98;;
26951;SDS011;14507;52.418;13.398;2023-02-11T16:29:41;33.35;;;18.13;;
26951;SDS011;14507;52.418;13.398;2023-02-11T16:34:43;30.30;;;15.45;;
26951;SDS011;14507;52.418;13.398;2023-02-11T16:37:09;29.33;;;16.23;;
26951;SDS011;14507;52.418;13.398;2023-02-11T16:39:37;26.02;;;15.20;;
26951;SDS011;14507;52.418;13.398;2023-02-11T16:42:03;31.30;;;16.63;;
26951;SDS011;14507;52.418;13.398;2023-02-11T16:44:30;27.83;;;16.17;;
26951;SDS011;14507;52.418;13.398;2023-02-11T16:47:00;28.38;;;15.55;;
26951;SDS011;14507;52.418;13.398;2023-02-11T16:52:01;23.67;;;13.15;;
26951;SDS011;14507;52.418;13.398;2023-02-11T16:54:30;21.00;;;12.23;;
26951;SDS011;14507;52.418;13.398;2023-02-11T16:56:56;23.70;;;13.90;;
26951;SDS011;14507;52.418;13.398;2023-02-11T16:59:22;21.27;;;12.18;;
26951;SDS011;14507;52.418;13.398;2023-02-11T17:01:48;22.33;;;13.50;;
26951;SDS011;14507;52.418;13.398;2023-02-11T17:04:34;25.23;;;14.77;;
26951;SDS011;14507;52.418;13.398;2023-02-11T17:06:59;25.35;;;14.45;;
26951;SDS011;14507;52.418;13.398;2023-02-11T17:09:26;27.08;;;14.95;;
26951;SDS011;14507;52.418;13.398;2023-02-11T17:11:52;23.42;;;14.05;;
26951;SDS011;14507;52.418;13.398;2023-02-11T17:14:18;23.52;;;13.30;;
26951;SDS011;14507;52.418;13.398;2023-02-11T17:16:44;22.15;;;12.63;;
26951;SDS011;14507;52.418;13.398;2023-02-11T17:19:12;19.85;;;12.60;;
26951;SDS011;14507;52.418;13.398;2023-02-11T17:24:05;25.17;;;13.05;;